createdAt,value
2022-08-11T00:01:56.881Z,96.8536
2022-08-11T00:06:57.881Z,96.8536
2022-08-11T00:11:59.063Z,97.23383
2022-08-11T00:17:00.094Z,97.23383
2022-08-11T00:22:04.425Z,97.23383
2022-08-11T00:27:07.017Z,97.23383
2022-08-11T00:32:07.963Z,97.61596
2022-08-11T00:37:08.965Z,98.0
2022-08-11T00:42:09.896Z,98.38596
2022-08-11T00:47:10.804Z,98.38596
2022-08-11T00:52:11.727Z,98.38596
2022-08-11T00:57:36.100Z,98.77387
2022-08-11T01:02:39.212Z,98.77387
2022-08-11T01:08:02.916Z,98.38596
2022-08-11T01:13:04.445Z,98.38596
2022-08-11T01:18:09.528Z,98.38596
2022-08-11T01:23:12.567Z,98.38596
2022-08-11T01:28:16.822Z,98.77387
2022-08-11T01:33:17.770Z,98.77387
2022-08-11T01:38:18.783Z,98.77387
2022-08-11T01:43:19.672Z,98.77387
2022-08-11T01:48:20.587Z,99.16373
2022-08-11T01:53:21.534Z,98.77387
2022-08-11T01:58:22.418Z,99.16373
2022-08-11T02:03:41.770Z,99.16373
2022-08-11T02:08:44.291Z,99.16373
2022-08-11T02:13:50.579Z,99.55556
2022-08-11T02:18:51.813Z,99.55556
2022-08-11T02:24:04.161Z,99.55556
2022-08-11T02:29:08.406Z,99.55556
2022-08-11T02:34:09.356Z,99.55556
2022-08-11T02:39:10.358Z,99.55556
2022-08-11T02:44:11.408Z,99.94937
2022-08-11T02:49:12.338Z,99.55556
2022-08-11T02:54:13.246Z,99.55556
2022-08-11T02:59:14.164Z,99.55556
2022-08-11T03:04:15.116Z,99.94937
2022-08-11T03:09:16.006Z,99.94937
2022-08-11T03:14:16.926Z,99.94937
2022-08-11T03:19:17.844Z,99.94937
2022-08-11T03:24:18.901Z,99.55556
2022-08-11T03:29:25.034Z,99.94937
2022-08-11T03:34:26.561Z,99.55556
2022-08-11T03:39:27.529Z,99.55556
2022-08-11T03:44:28.554Z,99.55556
2022-08-11T03:49:29.776Z,99.55556
2022-08-11T03:54:30.789Z,99.55556
2022-08-11T03:59:31.796Z,99.55556
2022-08-11T04:04:32.721Z,99.55556
2022-08-11T04:09:33.625Z,99.55556
2022-08-11T04:14:34.605Z,99.16373
2022-08-11T04:19:35.520Z,98.77387
2022-08-11T04:24:39.504Z,98.77387
2022-08-11T04:30:03.286Z,98.38596
2022-08-11T04:35:05.909Z,97.61596
2022-08-11T04:40:06.810Z,97.61596
2022-08-11T04:45:07.742Z,97.61596
2022-08-11T04:50:08.667Z,97.61596
2022-08-11T04:55:09.599Z,97.61596
2022-08-11T05:00:10.504Z,97.23383
2022-08-11T05:05:11.530Z,97.23383
2022-08-11T05:10:12.443Z,97.23383
2022-08-11T05:15:13.379Z,97.61596
2022-08-11T05:20:14.271Z,97.23383
2022-08-11T05:25:15.201Z,98.0
2022-08-11T05:31:46.849Z,97.23383
2022-08-11T05:36:47.770Z,98.0
2022-08-11T05:41:48.671Z,98.0
2022-08-11T05:46:49.619Z,98.38596
2022-08-11T05:51:55.273Z,98.38596
2022-08-11T05:56:56.673Z,98.77387
2022-08-11T06:01:57.625Z,98.0
2022-08-11T06:06:58.608Z,96.47525
2022-08-11T06:11:59.535Z,96.09877
2022-08-11T06:17:00.537Z,95.72414
2022-08-11T06:22:01.455Z,95.72414
2022-08-11T06:27:12.375Z,96.09877
2022-08-11T06:32:14.282Z,95.35135
2022-08-11T06:37:15.182Z,95.72414
2022-08-11T06:42:16.118Z,95.35135
2022-08-11T06:47:17.013Z,95.35135
2022-08-11T06:52:34.731Z,94.98039
2022-08-11T06:57:36.917Z,94.98039
2022-08-11T07:02:37.992Z,94.61125
2022-08-11T07:07:39.100Z,94.61125
2022-08-11T07:12:40.088Z,94.2439
2022-08-11T07:17:41.087Z,94.61125
2022-08-11T07:22:42.011Z,94.2439
2022-08-11T07:27:42.901Z,92.07692
2022-08-11T07:32:43.877Z,88.2623
2022-08-11T07:37:44.844Z,88.94118
2022-08-11T07:42:45.756Z,89.97156
2022-08-11T07:47:46.692Z,90.31829
2022-08-11T07:52:47.614Z,90.31829
2022-08-11T07:58:15.954Z,93.15254
2022-08-11T08:03:20.987Z,93.15254
2022-08-11T08:08:21.995Z,90.66667
2022-08-11T08:13:24.129Z,90.66667
2022-08-11T08:18:27.646Z,92.07692
2022-08-11T08:23:28.958Z,91.72182
2022-08-11T08:28:32.463Z,90.66667
2022-08-11T08:33:33.870Z,89.97156
2022-08-11T08:38:34.827Z,91.36842
2022-08-11T08:43:48.903Z,89.62648
2022-08-11T08:48:53.125Z,90.31829
2022-08-11T08:53:56.685Z,88.2623
2022-08-11T08:58:59.566Z,87.92523
2022-08-11T09:04:04.957Z,87.92523
2022-08-11T09:09:10.114Z,88.94118
2022-08-11T09:14:14.787Z,88.94118
2022-08-11T09:19:16.181Z,87.25581
2022-08-11T09:24:25.874Z,88.94118
2022-08-11T09:29:27.453Z,89.62648
2022-08-11T09:34:28.371Z,87.92523
2022-08-11T09:39:31.201Z,91.72182
2022-08-11T09:44:32.586Z,91.01671
2022-08-11T09:49:35.353Z,89.97156
2022-08-11T09:54:36.260Z,89.97156
2022-08-11T09:59:37.182Z,89.28302
2022-08-11T10:04:38.289Z,89.62648
2022-08-11T10:09:39.381Z,89.62648
2022-08-11T10:14:44.385Z,87.92523
2022-08-11T10:19:45.647Z,88.60094
2022-08-11T10:25:05.674Z,87.92523
2022-08-11T10:30:06.565Z,86.26328
2022-08-11T10:35:08.221Z,87.92523
2022-08-11T10:40:09.159Z,87.25581
2022-08-11T10:45:10.051Z,84.0
2022-08-11T10:50:10.959Z,91.01671
2022-08-11T10:55:12.112Z,90.31829
2022-08-11T11:00:13.140Z,92.43373
2022-08-11T11:05:14.111Z,88.60094
2022-08-11T11:10:15.128Z,90.66667
2022-08-11T11:15:17.722Z,88.94118
2022-08-11T11:20:36.382Z,90.66667
2022-08-11T11:25:40.139Z,90.31829
2022-08-11T11:30:41.021Z,93.51456
2022-08-11T11:35:41.947Z,89.62648
2022-08-11T11:40:42.921Z,87.92523
2022-08-11T11:45:43.927Z,87.92523
2022-08-11T11:50:45.023Z,87.92523
2022-08-11T11:55:45.965Z,87.58974
2022-08-11T12:00:46.874Z,90.66667
2022-08-11T12:05:47.774Z,89.97156
2022-08-11T12:10:48.744Z,87.92523
2022-08-11T12:16:31.617Z,87.58974
2022-08-11T12:21:37.061Z,85.93548
2022-08-11T12:26:37.979Z,87.58974
2022-08-11T12:31:39.278Z,90.66667
2022-08-11T12:36:40.220Z,90.31829
2022-08-11T12:41:41.248Z,89.28302
2022-08-11T12:46:42.551Z,87.58974
2022-08-11T12:52:11.127Z,84.63927
2022-08-11T12:57:15.090Z,85.93548
2022-08-11T13:02:25.045Z,84.63927
2022-08-11T13:07:50.481Z,82.11659
2022-08-11T13:12:52.368Z,83.68254
2022-08-11T13:17:53.390Z,84.9611
2022-08-11T13:22:54.404Z,83.36652
2022-08-11T13:27:55.429Z,84.0
2022-08-11T13:32:59.639Z,79.68282
2022-08-11T13:38:18.533Z,83.36652
2022-08-11T13:43:20.972Z,82.42697
2022-08-11T13:48:21.979Z,80.28319
2022-08-11T13:53:22.875Z,84.0
2022-08-11T13:58:40.587Z,82.11659
2022-08-11T14:04:30.515Z,81.5
2022-08-11T14:09:32.990Z,81.19376
2022-08-11T14:14:33.937Z,83.05192
2022-08-11T14:19:34.926Z,81.80761
2022-08-11T14:24:35.924Z,84.63927
2022-08-11T14:29:48.567Z,84.63927
2022-08-11T14:34:50.090Z,84.31891
2022-08-11T14:39:51.096Z,83.36652
2022-08-11T14:44:52.115Z,85.2844
2022-08-11T14:50:08.227Z,83.36652
2022-08-11T14:55:13.405Z,87.25581
2022-08-11T15:00:14.285Z,84.0
2022-08-11T15:05:15.241Z,82.11659
2022-08-11T15:10:16.174Z,86.92343
2022-08-11T15:15:17.108Z,84.9611
2022-08-11T15:20:18.021Z,87.58974
2022-08-11T15:25:18.978Z,84.31891
2022-08-11T15:30:33.572Z,83.68254
2022-08-11T15:35:39.516Z,83.05192
2022-08-11T15:40:40.754Z,87.25581
2022-08-11T15:45:44.522Z,85.2844
2022-08-11T15:50:45.469Z,85.6092
2022-08-11T15:55:46.387Z,85.2844
2022-08-11T16:00:47.320Z,88.60094
2022-08-11T16:05:52.860Z,88.2623
2022-08-11T16:10:54.292Z,89.97156
2022-08-11T16:15:56.361Z,89.28302
2022-08-11T16:20:57.262Z,89.28302
2022-08-11T16:27:11.227Z,88.60094
2022-08-11T16:32:14.429Z,89.97156
2022-08-11T16:37:15.500Z,92.43373
2022-08-11T16:43:00.187Z,92.43373
2022-08-11T16:48:33.435Z,92.43373
2022-08-11T16:54:04.666Z,92.79227
2022-08-11T16:59:07.034Z,96.8536
2022-08-11T17:04:08.043Z,94.98039
2022-08-11T17:09:08.989Z,94.61125
2022-08-11T17:14:09.883Z,94.61125
2022-08-11T17:19:10.818Z,94.61125
2022-08-11T17:24:11.788Z,95.35135
2022-08-11T17:29:12.715Z,94.98039
2022-08-11T17:34:13.629Z,95.72414
2022-08-11T17:39:14.671Z,97.23383
2022-08-11T17:44:15.724Z,97.61596
2022-08-11T17:49:16.712Z,95.72414
2022-08-11T17:54:24.673Z,96.47525
2022-08-11T17:59:26.397Z,95.35135
2022-08-11T18:04:33.396Z,93.87835
2022-08-11T18:09:34.288Z,94.61125
2022-08-11T18:14:35.277Z,95.35135
2022-08-11T18:19:36.276Z,95.72414
2022-08-11T18:24:37.253Z,95.72414
2022-08-11T18:29:41.959Z,95.35135
2022-08-11T18:34:45.762Z,94.98039
2022-08-11T18:39:56.271Z,93.51456
2022-08-11T18:44:57.770Z,93.15254
2022-08-11T18:50:02.187Z,93.87835
2022-08-11T18:55:05.144Z,94.61125
2022-08-11T19:00:06.056Z,94.98039
2022-08-11T19:05:07.005Z,95.72414
2022-08-11T19:10:07.918Z,96.09877
2022-08-11T19:15:08.833Z,96.09877
2022-08-11T19:20:09.837Z,96.09877
2022-08-11T19:25:10.828Z,96.47525
2022-08-11T19:30:13.975Z,96.09877
2022-08-11T19:35:18.149Z,96.47525
2022-08-11T19:40:19.116Z,96.8536
2022-08-11T19:45:19.984Z,96.8536
2022-08-11T19:50:24.260Z,97.23383
2022-08-11T19:55:25.376Z,96.8536
2022-08-11T20:00:29.914Z,96.8536
2022-08-11T20:05:31.438Z,96.8536
2022-08-11T20:10:32.369Z,96.8536
2022-08-11T20:15:33.291Z,96.8536
2022-08-11T20:20:34.872Z,96.47525
2022-08-11T20:25:36.102Z,96.47525
2022-08-11T20:30:37.039Z,96.09877
2022-08-11T20:35:37.943Z,96.09877
2022-08-11T20:40:39.223Z,96.09877
2022-08-11T20:45:55.346Z,96.09877
2022-08-11T20:50:58.417Z,96.47525
2022-08-11T20:55:59.361Z,96.8536
2022-08-11T21:01:07.561Z,97.23383
2022-08-11T21:06:31.170Z,97.61596
2022-08-11T21:11:32.787Z,98.77387
2022-08-11T21:16:34.578Z,99.16373
2022-08-11T21:21:45.599Z,99.55556
2022-08-11T21:26:47.411Z,99.16373
2022-08-11T21:31:48.309Z,99.16373
2022-08-11T21:36:49.290Z,98.77387
2022-08-11T21:41:50.235Z,98.77387
2022-08-11T21:46:51.130Z,98.0
2022-08-11T21:51:52.068Z,98.0
2022-08-11T21:56:53.069Z,98.38596
2022-08-11T22:01:54.093Z,98.0
2022-08-11T22:06:55.106Z,98.0
2022-08-11T22:12:29.888Z,97.61596
2022-08-11T22:17:43.653Z,97.23383
2022-08-11T22:22:52.502Z,96.8536
2022-08-11T22:27:54.329Z,96.8536
2022-08-11T22:32:55.235Z,96.8536
2022-08-11T22:37:56.149Z,96.8536
2022-08-11T22:42:57.064Z,96.47525
2022-08-11T22:47:57.976Z,96.47525
2022-08-11T22:52:58.907Z,96.47525
2022-08-11T22:58:01.210Z,96.09877
2022-08-11T23:03:02.515Z,95.72414
2022-08-11T23:08:03.410Z,95.72414
2022-08-11T23:13:04.374Z,95.72414
2022-08-11T23:18:05.331Z,96.09877
2022-08-11T23:23:07.123Z,96.47525
2022-08-11T23:28:08.692Z,96.09877
2022-08-11T23:33:10.058Z,96.09877
2022-08-11T23:38:11.489Z,96.09877
2022-08-11T23:43:12.385Z,96.09877
2022-08-11T23:48:13.385Z,96.09877
2022-08-11T23:53:14.428Z,96.09877
2022-08-11T23:58:15.439Z,96.09877
